Time;durP1;ratioP1;P1;durP2;ratioP2;P2;SDS_P1;SDS_P2;PMS_P1;PMS_P2;Temp;Humidity;BMP_temperature;BMP_pressure;BME280_temperature;BME280_humidity;BME280_pressure;Samples;Min_cycle;Max_cycle;Signal;HPM_P1;HPM_P2
2022/07/13 00:03:10;;;;;;;;;;;;;;;23.17;47.26;96455.31;10500254;28;1964;-55
2022/07/13 00:08:11;;;;;;;;;;;;;;;23.16;47.06;96451.84;10502637;28;1879;-57
2022/07/13 00:13:12;;;;;;;;;;;;;;;23.16;47.01;96449.22;10506521;28;1816;-56
2022/07/13 00:18:13;;;;;;;;;;;;;;;23.17;46.88;96439.44;10503803;28;1826;-55
2022/07/13 00:23:13;;;;;;;;;;;;;;;23.15;47.07;96429.13;10500700;28;1911;-59
2022/07/13 00:28:14;;;;;;;;;;;;;;;23.17;47.08;96427.00;10505760;28;1832;-57
2022/07/13 00:33:14;;;;;;;;;;;;;;;23.17;47.14;96432.28;10486725;28;1990;-57
2022/07/13 00:38:15;;;;;;;;;;;;;;;23.16;46.88;96425.41;10512570;28;1842;-58
2022/07/13 00:43:15;;;;;;;;;;;;;;;23.16;46.77;96428.06;10516424;28;2085;-60
2022/07/13 00:48:16;;;;;;;;;;;;;;;23.16;46.80;96429.94;10512080;28;1858;-55
2022/07/13 00:53:17;;;;;;;;;;;;;;;23.17;46.99;96423.56;10510740;28;1811;-54
2022/07/13 00:58:18;;;;;;;;;;;;;;;23.15;46.91;96423.03;10509342;28;1863;-59
2022/07/13 01:03:18;;;;;;;;;;;;;;;23.15;46.76;96423.03;10507324;28;1983;-58
2022/07/13 01:08:19;;;;;;;;;;;;;;;23.15;46.98;96423.03;10509538;28;1831;-54
2022/07/13 01:13:21;;;;;;;;;;;;;;;23.16;46.73;96424.66;10491557;28;1781;-57
2022/07/13 01:18:23;;;;;;;;;;;;;;;23.16;46.77;96416.72;10508689;28;1761;-59
2022/07/13 01:23:39;;;;;;;;;;;;;;;23.15;46.70;96423.03;10499424;28;1902;-58
2022/07/13 01:28:44;;;;;;;;;;;;;;;23.14;47.08;96421.47;10506241;28;1843;-59
2022/07/13 01:33:48;;;;;;;;;;;;;;;23.15;46.76;96423.84;10502415;28;1918;-56
2022/07/13 01:38:50;;;;;;;;;;;;;;;23.15;46.88;96417.75;10514868;28;1780;-55
2022/07/13 01:44:01;;;;;;;;;;;;;;;23.14;46.66;96422.25;10510284;28;1910;-60
2022/07/13 01:49:01;;;;;;;;;;;;;;;23.15;46.82;96426.50;10511244;28;1866;-58
2022/07/13 01:54:01;;;;;;;;;;;;;;;23.13;46.93;96428.63;10510802;28;1976;-60
2022/07/13 01:59:02;;;;;;;;;;;;;;;23.14;46.69;96424.13;10514810;28;1897;-55
2022/07/13 02:04:03;;;;;;;;;;;;;;;23.14;46.80;96421.47;10497958;28;2001;-60
2022/07/13 02:09:04;;;;;;;;;;;;;;;23.15;46.84;96420.41;10506117;28;1998;-61
2022/07/13 02:14:05;;;;;;;;;;;;;;;23.15;46.76;96420.41;10505785;28;2018;-58
2022/07/13 02:19:06;;;;;;;;;;;;;;;23.14;46.77;96414.31;10512708;28;1929;-61
2022/07/13 02:24:06;;;;;;;;;;;;;;;23.15;46.69;96417.75;10506450;28;2043;-59
2022/07/13 02:29:06;;;;;;;;;;;;;;;23.15;46.51;96426.50;10504328;28;1881;-58
2022/07/13 02:34:07;;;;;;;;;;;;;;;23.13;46.58;96414.59;10505623;28;2001;-57
2022/07/13 02:39:07;;;;;;;;;;;;;;;23.13;46.62;96419.88;10509653;28;1970;-55
2022/07/13 02:44:08;;;;;;;;;;;;;;;23.12;46.32;96419.09;10506182;28;1972;-63
2022/07/13 02:49:09;;;;;;;;;;;;;;;23.13;46.34;96414.59;10509682;28;1906;-63
2022/07/13 02:54:13;;;;;;;;;;;;;;;23.13;46.31;96411.94;10508214;28;2079;-61
2022/07/13 02:59:14;;;;;;;;;;;;;;;23.12;46.52;96413.03;10505965;28;1913;-58
2022/07/13 03:04:14;;;;;;;;;;;;;;;23.12;46.31;96408.50;10499956;28;2004;-58
2022/07/13 03:09:14;;;;;;;;;;;;;;;23.12;46.26;96402.44;10506734;28;2019;-58
2022/07/13 03:14:15;;;;;;;;;;;;;;;23.12;46.37;96402.44;10501140;28;1981;-61
2022/07/13 03:19:15;;;;;;;;;;;;;;;23.11;46.00;96414.06;10507083;28;1945;-58
2022/07/13 03:24:15;;;;;;;;;;;;;;;23.11;46.36;96416.72;10501576;28;1916;-59
2022/07/13 03:29:15;;;;;;;;;;;;;;;23.10;45.96;96413.28;10506161;28;1493;-52
2022/07/13 03:34:17;;;;;;;;;;;;;;;23.10;46.33;96415.16;10511479;28;1374;-58
2022/07/13 03:39:17;;;;;;;;;;;;;;;23.09;46.05;96409.06;10506507;28;1504;-57
2022/07/13 03:44:18;;;;;;;;;;;;;;;23.09;46.09;96417.00;10508569;28;1944;-56
2022/07/13 03:49:18;;;;;;;;;;;;;;;23.09;45.93;96413.56;10505844;28;2355;-55
2022/07/13 03:54:19;;;;;;;;;;;;;;;23.10;46.12;96423.84;10510382;28;1996;-56
2022/07/13 03:59:19;;;;;;;;;;;;;;;23.10;46.05;96420.44;10509535;28;1954;-59
2022/07/13 04:04:20;;;;;;;;;;;;;;;23.09;45.95;96416.22;10505758;28;1989;-57
2022/07/13 04:09:21;;;;;;;;;;;;;;;23.09;45.85;96414.38;10512850;28;1286;-58
2022/07/13 04:14:21;;;;;;;;;;;;;;;23.08;45.76;96410.13;10514652;28;1618;-57
2022/07/13 04:19:22;;;;;;;;;;;;;;;23.09;45.77;96402.97;10519032;28;1516;-57
2022/07/13 04:24:22;;;;;;;;;;;;;;;23.09;46.07;96400.34;10515924;28;1910;-53
2022/07/13 04:29:23;;;;;;;;;;;;;;;23.09;46.06;96397.69;10514976;28;1976;-59
2022/07/13 04:34:24;;;;;;;;;;;;;;;23.09;45.95;96395.06;10511311;28;1984;-58
2022/07/13 04:39:24;;;;;;;;;;;;;;;23.09;45.60;96387.91;10519979;28;2085;-61
2022/07/13 04:44:26;;;;;;;;;;;;;;;23.09;45.68;96384.47;10511575;28;1968;-59
2022/07/13 04:49:26;;;;;;;;;;;;;;;23.09;45.97;96382.63;10513005;28;1949;-61
2022/07/13 04:54:27;;;;;;;;;;;;;;;23.09;45.79;96387.91;10518376;28;2266;-59
2022/07/13 04:59:27;;;;;;;;;;;;;;;23.08;45.69;96381.03;10514182;28;1885;-58
2022/07/13 05:04:27;;;;;;;;;;;;;;;23.09;46.05;96381.84;10511688;28;1983;-55
2022/07/13 05:09:27;;;;;;;;;;;;;;;23.09;45.75;96371.25;10513685;28;2381;-57
2022/07/13 05:14:28;;;;;;;;;;;;;;;23.10;45.68;96378.13;10508167;28;1967;-57
2022/07/13 05:19:28;;;;;;;;;;;;;;;23.09;45.78;96371.25;10517125;28;1971;-55
2022/07/13 05:24:28;;;;;;;;;;;;;;;23.09;45.87;96374.69;10507261;28;2003;-55
2022/07/13 05:29:29;;;;;;;;;;;;;;;23.09;45.82;96379.97;10510986;28;1984;-55
2022/07/13 05:34:29;;;;;;;;;;;;;;;23.10;45.62;96378.13;10508107;28;1869;-58
2022/07/13 05:39:29;;;;;;;;;;;;;;;23.10;45.80;96383.44;10511949;28;2005;-56
2022/07/13 05:44:29;;;;;;;;;;;;;;;23.12;45.79;96381.28;10502609;28;1910;-57
2022/07/13 05:49:30;;;;;;;;;;;;;;;23.09;45.84;96369.41;10499715;28;2047;-58
2022/07/13 05:54:31;;;;;;;;;;;;;;;23.10;45.82;96367.56;10506366;28;1960;-56
2022/07/13 05:59:35;;;;;;;;;;;;;;;23.11;45.76;96366.47;10508551;28;1921;-61
2022/07/13 06:04:36;;;;;;;;;;;;;;;23.11;45.82;96374.41;10501352;28;1973;-58
2022/07/13 06:09:36;;;;;;;;;;;;;;;23.10;45.96;96355.09;10499717;28;1958;-60
2022/07/13 06:14:36;;;;;;;;;;;;;;;23.11;46.09;96355.91;10495607;28;2202;-58
2022/07/13 06:19:37;;;;;;;;;;;;;;;23.11;45.80;96347.97;10505372;28;1896;-60
2022/07/13 06:24:37;;;;;;;;;;;;;;;23.11;45.93;96358.53;10501652;28;2107;-62
2022/07/13 06:29:38;;;;;;;;;;;;;;;23.11;45.94;96354.06;10502056;28;1971;-56
2022/07/13 06:34:39;;;;;;;;;;;;;;;23.12;45.77;96349.56;10497728;28;1940;-56
2022/07/13 06:39:39;;;;;;;;;;;;;;;23.13;46.15;96361.69;10508772;28;1949;-53
2022/07/13 06:44:40;;;;;;;;;;;;;;;23.12;45.83;96341.63;10507889;28;2213;-56
2022/07/13 06:49:40;;;;;;;;;;;;;;;23.12;46.23;96333.69;10502991;28;1940;-59
2022/07/13 06:54:40;;;;;;;;;;;;;;;23.12;45.94;96334.47;10486057;28;1875;-60
2022/07/13 06:59:42;;;;;;;;;;;;;;;23.12;45.84;96325.75;10500682;28;1888;-58
2022/07/13 07:04:43;;;;;;;;;;;;;;;23.13;45.80;96337.91;10506176;28;1914;-60
2022/07/13 07:09:43;;;;;;;;;;;;;;;23.11;45.87;96332.09;10501121;28;1851;-57
2022/07/13 07:14:46;;;;;;;;;;;;;;;23.12;45.87;96336.34;10503675;28;1942;-58
2022/07/13 07:19:47;;;;;;;;;;;;;;;23.12;45.82;96344.28;10501286;28;1808;-57
2022/07/13 07:24:47;;;;;;;;;;;;;;;23.12;45.81;96349.56;10507621;28;1949;-60
2022/07/13 07:29:47;;;;;;;;;;;;;;;23.12;45.87;96346.91;10496168;28;1768;-59
2022/07/13 07:34:48;;;;;;;;;;;;;;;23.12;45.86;96345.03;10500079;28;1804;-59
2022/07/13 07:39:49;;;;;;;;;;;;;;;23.12;46.16;96355.63;10492348;28;1736;-59
2022/07/13 07:44:49;;;;;;;;;;;;;;;23.13;45.69;96345.84;10495700;28;1918;-59
2022/07/13 07:49:49;;;;;;;;;;;;;;;23.12;45.95;96342.41;10497979;28;1804;-56
2022/07/13 07:54:51;;;;;;;;;;;;;;;23.12;45.79;96339.75;10499895;28;1867;-58
2022/07/13 07:59:51;;;;;;;;;;;;;;;23.13;46.09;96337.91;10504017;28;1818;-60
2022/07/13 08:04:51;;;;;;;;;;;;;;;23.13;45.71;96335.25;10496211;28;2184;-59
2022/07/13 08:09:52;;;;;;;;;;;;;;;23.12;45.69;96331.06;10499655;28;1911;-58
2022/07/13 08:14:52;;;;;;;;;;;;;;;23.11;45.89;96335.53;10495295;28;1763;-60
2022/07/13 08:19:52;;;;;;;;;;;;;;;23.12;45.77;96344.28;10503101;28;1785;-60
2022/07/13 08:24:53;;;;;;;;;;;;;;;23.10;45.84;96335.81;10499352;28;1992;-58
2022/07/13 08:29:53;;;;;;;;;;;;;;;23.10;45.74;96335.81;10498865;28;1922;-62
2022/07/13 08:40:13;;;;;;;;;;;;;;;23.06;45.42;96332.16;10505991;28;1811;-61
2022/07/13 08:45:14;;;;;;;;;;;;;;;23.07;45.58;96333.72;10499008;28;1964;-56
2022/07/13 08:50:15;;;;;;;;;;;;;;;23.06;45.41;96330.28;10500652;28;1900;-60
2022/07/13 08:55:15;;;;;;;;;;;;;;;23.07;45.51;96331.06;10506226;28;1871;-57
2022/07/13 09:00:17;;;;;;;;;;;;;;;23.07;45.25;96331.06;10512494;28;1791;-61
2022/07/13 09:05:18;;;;;;;;;;;;;;;23.06;45.34;96334.78;10511509;28;1971;-61
2022/07/13 09:10:20;;;;;;;;;;;;;;;23.07;45.09;96326.59;10512449;28;1851;-63
2022/07/13 09:15:20;;;;;;;;;;;;;;;23.05;44.95;96328.72;10507153;28;1874;-58
2022/07/13 09:20:22;;;;;;;;;;;;;;;23.04;44.65;96331.63;10511131;28;1816;-59
2022/07/13 09:25:25;;;;;;;;;;;;;;;23.05;44.40;96333.19;10507635;28;1993;-60
2022/07/13 09:30:26;;;;;;;;;;;;;;;23.06;44.17;96335.56;10503861;28;1836;-59
2022/07/13 09:35:39;;;;;;;;;;;;;;;23.06;43.89;96335.56;10508496;28;1774;-56
2022/07/13 09:40:39;;;;;;;;;;;;;;;23.05;43.79;96339.28;10507941;28;3099;-60
2022/07/13 09:50:58;;;;;;;;;;;;;;;23.05;43.63;96334.00;10500613;28;1993;-56
2022/07/13 09:56:00;;;;;;;;;;;;;;;23.09;44.02;96336.88;10504245;28;1846;-59
2022/07/13 10:01:02;;;;;;;;;;;;;;;23.10;44.28;96331.31;10506482;28;1669;-56
2022/07/13 10:06:05;;;;;;;;;;;;;;;23.12;44.96;96333.69;10507593;28;1932;-55
2022/07/13 10:11:05;;;;;;;;;;;;;;;23.17;44.87;96325.72;10502767;28;1832;-58
2022/07/13 10:16:06;;;;;;;;;;;;;;;23.17;44.57;96331.00;10503572;28;1839;-60
2022/07/13 10:21:16;;;;;;;;;;;;;;;23.18;44.60;96335.25;10499510;28;2034;-58
2022/07/13 10:26:20;;;;;;;;;;;;;;;23.16;44.22;96330.19;10488266;28;1918;-57
2022/07/13 10:31:27;;;;;;;;;;;;;;;23.16;44.23;96334.72;10501919;28;1840;-59
2022/07/13 10:36:46;;;;;;;;;;;;;;;23.16;43.97;96324.91;10506508;28;1874;-57
2022/07/13 10:42:06;;;;;;;;;;;;;;;23.16;43.63;96329.44;10504712;28;2186;-58
2022/07/13 10:47:08;;;;;;;;;;;;;;;23.15;43.74;96328.63;10503541;28;1898;-58
2022/07/13 10:52:21;;;;;;;;;;;;;;;23.18;43.73;96332.59;10505027;28;1873;-57
2022/07/13 10:57:26;;;;;;;;;;;;;;;23.14;43.58;96324.41;10505181;28;1831;-57
2022/07/13 11:02:42;;;;;;;;;;;;;;;23.18;43.55;96322.81;10484664;28;1891;-58
2022/07/13 11:07:43;;;;;;;;;;;;;;;23.19;43.41;96313.00;10508942;28;1981;-57
2022/07/13 11:13:03;;;;;;;;;;;;;;;23.21;43.39;96295.00;10503147;28;1811;-58
2022/07/13 11:18:23;;;;;;;;;;;;;;;23.21;43.44;96295.00;10499876;28;1866;-59
2022/07/13 11:28:55;;;;;;;;;;;;;;;23.23;43.44;96277.00;10492989;28;1815;-58
2022/07/13 11:33:55;;;;;;;;;;;;;;;23.20;43.61;96286.28;10490167;28;1847;-57
2022/07/13 11:38:57;;;;;;;;;;;;;;;23.24;43.48;96286.53;10481362;28;1878;-59
2022/07/13 11:43:57;;;;;;;;;;;;;;;23.26;43.88;96281.75;10496856;28;1917;-58
2022/07/13 11:49:03;;;;;;;;;;;;;;;23.25;44.09;96275.66;10484988;28;1874;-58
2022/07/13 11:54:10;;;;;;;;;;;;;;;23.28;44.28;96280.41;10494728;28;1908;-55
2022/07/13 11:59:11;;;;;;;;;;;;;;;23.28;44.40;96271.66;10500185;28;1846;-59
2022/07/13 12:04:12;;;;;;;;;;;;;;;23.30;44.54;96266.88;10497977;28;2025;-57
2022/07/13 12:09:17;;;;;;;;;;;;;;;23.31;44.56;96260.50;10495727;28;1760;-60
2022/07/13 12:14:17;;;;;;;;;;;;;;;23.33;44.62;96250.47;10499585;28;1796;-56
2022/07/13 12:19:18;;;;;;;;;;;;;;;23.35;44.68;96249.13;10491779;28;1871;-60
2022/07/13 12:24:18;;;;;;;;;;;;;;;23.36;44.81;96240.16;10505750;28;1910;-55
2022/07/13 12:29:25;;;;;;;;;;;;;;;23.37;44.89;96235.63;10504415;28;2000;-59
2022/07/13 12:34:25;;;;;;;;;;;;;;;23.39;44.93;96231.63;10501057;28;1881;-57
2022/07/13 12:39:35;;;;;;;;;;;;;;;23.41;44.86;96232.16;10504605;28;1783;-58
2022/07/13 12:44:35;;;;;;;;;;;;;;;23.41;45.44;96220.78;10503780;28;2128;-58
2022/07/13 12:49:36;;;;;;;;;;;;;;;23.41;45.58;96220.78;10491379;28;1990;-57
2022/07/13 12:54:39;;;;;;;;;;;;;;;23.43;45.35;96202.78;10508313;28;1867;-58
2022/07/13 12:59:39;;;;;;;;;;;;;;;23.45;45.42;96205.94;10506386;28;1871;-56
2022/07/13 13:04:39;;;;;;;;;;;;;;;23.43;45.54;96203.56;10480217;28;2095;-58
2022/07/13 13:09:40;;;;;;;;;;;;;;;23.47;45.71;96203.81;10507290;28;1816;-57
2022/07/13 13:14:40;;;;;;;;;;;;;;;23.47;45.83;96190.56;10504928;28;1958;-54
2022/07/13 13:19:41;;;;;;;;;;;;;;;23.49;45.73;96201.66;10511274;28;1875;-56
2022/07/13 13:24:41;;;;;;;;;;;;;;;23.50;45.46;96184.69;10509391;28;1981;-57
2022/07/13 13:35:02;;;;;;;;;;;;;;;23.54;45.15;96172.47;10510903;28;2105;-57
2022/07/13 13:40:02;;;;;;;;;;;;;;;23.50;45.44;96165.38;10507883;28;1868;-57
2022/07/13 13:45:03;;;;;;;;;;;;;;;23.51;45.59;96162.47;10514246;28;2124;-57
2022/07/13 13:50:04;;;;;;;;;;;;;;;23.51;45.66;96156.38;10505023;28;1963;-54
2022/07/13 13:55:04;;;;;;;;;;;;;;;23.53;45.62;96159.53;10503827;28;2066;-54
2022/07/13 14:00:06;;;;;;;;;;;;;;;23.54;45.60;96151.31;10506114;28;2240;-53
2022/07/13 14:05:06;;;;;;;;;;;;;;;23.53;45.57;96144.47;10493382;28;2200;-57
2022/07/13 14:10:07;;;;;;;;;;;;;;;23.52;45.48;96142.88;10501280;22;3381;-72
2022/07/13 14:15:08;;;;;;;;;;;;;;;23.51;45.15;96135.22;10489410;28;1866;-72
2022/07/13 14:20:08;;;;;;;;;;;;;;;23.49;45.42;96132.88;10511472;28;1864;-69
2022/07/13 14:25:08;;;;;;;;;;;;;;;23.50;45.33;96126.50;10509474;28;1913;-73
2022/07/13 14:30:09;;;;;;;;;;;;;;;23.49;44.76;96121.47;10514100;28;2043;-70
2022/07/13 14:35:11;;;;;;;;;;;;;;;23.47;44.80;96108.53;10494814;28;1844;-71
2022/07/13 14:40:12;;;;;;;;;;;;;;;23.47;44.77;96113.84;10514924;28;1997;-70
2022/07/13 14:45:13;;;;;;;;;;;;;;;23.48;44.77;96112.75;10505405;28;1978;-71
2022/07/13 14:50:13;;;;;;;;;;;;;;;23.52;44.84;96105.03;10512264;28;2048;-71
2022/07/13 14:55:15;;;;;;;;;;;;;;;23.55;44.44;96097.34;10501496;28;1870;-73
2022/07/13 15:00:16;;;;;;;;;;;;;;;23.54;44.02;96095.75;10507454;28;1800;-72
2022/07/13 15:05:17;;;;;;;;;;;;;;;23.56;43.56;96093.59;10511361;28;1901;-72
2022/07/13 15:10:18;;;;;;;;;;;;;;;23.55;43.02;96093.88;10487827;28;1824;-70
2022/07/13 15:15:18;;;;;;;;;;;;;;;23.54;43.10;96093.09;10495180;28;1926;-72
2022/07/13 15:20:19;;;;;;;;;;;;;;;23.52;42.06;96087.31;10508177;28;1844;-74
2022/07/13 15:25:19;;;;;;;;;;;;;;;23.50;42.23;96091.28;10518136;28;2062;-73
2022/07/13 15:30:20;;;;;;;;;;;;;;;23.49;41.97;96085.25;10511064;28;1850;-71
2022/07/13 15:35:22;;;;;;;;;;;;;;;23.49;41.43;96092.38;10497510;28;1971;-73
2022/07/13 15:41:22;;;;;;;;;;;;;;;23.49;40.94;96079.94;10511965;28;1815;-72
2022/07/13 15:45:43;;;;;;;;;;;;;;;23.50;41.09;96086.78;10532685;28;1984;-73
2022/07/13 15:50:43;;;;;;;;;;;;;;;23.52;40.41;96092.59;10510525;28;1815;-73
2022/07/13 15:55:44;;;;;;;;;;;;;;;23.49;40.44;96079.94;10514068;28;1827;-73
2022/07/13 16:00:45;;;;;;;;;;;;;;;23.45;39.82;96089.53;10490819;28;2011;-72
2022/07/13 16:05:46;;;;;;;;;;;;;;;23.46;40.11;96080.50;10513747;28;1957;-72
2022/07/13 16:10:47;;;;;;;;;;;;;;;23.47;39.90;96081.28;10505758;28;2073;-73
2022/07/13 16:15:48;;;;;;;;;;;;;;;23.45;39.54;96073.66;10501241;28;1783;-73
2022/07/13 16:20:48;;;;;;;;;;;;;;;23.45;39.63;96074.41;10498146;28;1871;-73
2022/07/13 16:25:49;;;;;;;;;;;;;;;23.40;39.33;96079.00;10522524;28;1913;-71
2022/07/13 16:30:50;;;;;;;;;;;;;;;23.40;39.28;96076.34;10518055;28;1870;-68
2022/07/13 16:35:51;;;;;;;;;;;;;;;23.41;39.24;96078.69;10513712;28;1840;-70
2022/07/13 16:40:51;;;;;;;;;;;;;;;23.44;39.14;96074.72;10521796;28;1792;-71
2022/07/13 16:45:52;;;;;;;;;;;;;;;23.45;39.19;96073.66;10514727;28;1950;-71
2022/07/13 16:50:54;;;;;;;;;;;;;;;23.46;39.13;96075.22;10520490;28;1824;-71
2022/07/13 16:55:54;;;;;;;;;;;;;;;23.47;38.88;96076.78;10523359;28;1792;-70
2022/07/13 17:00:55;;;;;;;;;;;;;;;23.45;39.19;96076.28;10518726;28;1850;-71
2022/07/13 17:05:55;;;;;;;;;;;;;;;23.43;39.00;96073.91;10534310;28;1969;-71
2022/07/13 17:10:57;;;;;;;;;;;;;;;23.42;39.14;96075.00;10497923;28;1852;-69
2022/07/13 17:15:58;;;;;;;;;;;;;;;23.43;39.21;96071.25;10517426;28;1808;-70
2022/07/13 17:20:59;;;;;;;;;;;;;;;23.42;39.12;96068.91;10516201;28;1824;-69
2022/07/13 17:25:59;;;;;;;;;;;;;;;23.44;39.26;96072.84;10530535;28;1913;-69
2022/07/13 17:30:59;;;;;;;;;;;;;;;23.45;39.25;96076.28;10518081;28;1825;-69
2022/07/13 17:36:00;;;;;;;;;;;;;;;23.45;39.28;96069.13;10522416;28;2002;-72
2022/07/13 17:41:01;;;;;;;;;;;;;;;23.44;39.28;96061.47;10522647;28;1890;-71
2022/07/13 17:46:02;;;;;;;;;;;;;;;23.44;39.33;96059.63;10521666;28;1918;-71
2022/07/13 17:51:03;;;;;;;;;;;;;;;23.45;39.54;96071.00;10515386;28;1775;-71
2022/07/13 17:56:03;;;;;;;;;;;;;;;23.55;39.21;96049.69;10498170;28;1825;-69
2022/07/13 18:01:04;;;;;;;;;;;;;;;23.72;39.19;96055.28;10509704;28;1973;-71
2022/07/13 18:06:04;;;;;;;;;;;;;;;23.67;39.17;96047.41;10500379;28;1926;-72
2022/07/13 18:11:05;;;;;;;;;;;;;;;23.69;39.29;96042.63;10490773;28;1909;-71
2022/07/13 18:16:06;;;;;;;;;;;;;;;23.67;39.25;96050.06;10512081;28;1828;-71
2022/07/13 18:21:06;;;;;;;;;;;;;;;23.63;39.54;96041.13;10512306;28;1792;-72
2022/07/13 18:26:07;;;;;;;;;;;;;;;23.61;39.42;96056.50;10512495;28;1926;-71
2022/07/13 18:31:07;;;;;;;;;;;;;;;23.59;39.25;96047.25;10512776;28;1805;-70
2022/07/13 18:36:08;;;;;;;;;;;;;;;23.57;39.34;96036.97;10511145;28;1856;-72
2022/07/13 18:41:08;;;;;;;;;;;;;;;23.55;39.34;96046.25;10492596;28;1795;-72
2022/07/13 18:46:08;;;;;;;;;;;;;;;23.54;39.48;96049.97;10508607;28;1914;-73
2022/07/13 18:51:09;;;;;;;;;;;;;;;23.51;39.64;96061.94;10490705;28;1852;-70
2022/07/13 18:56:10;;;;;;;;;;;;;;;23.48;39.71;96057.19;10511532;28;1827;-72
2022/07/13 19:01:11;;;;;;;;;;;;;;;23.51;40.19;96059.28;10517263;28;1776;-72
2022/07/13 19:06:11;;;;;;;;;;;;;;;23.52;39.86;96066.13;10523199;28;1913;-72
2022/07/13 19:11:11;;;;;;;;;;;;;;;23.51;39.81;96067.22;10513278;28;1791;-70
2022/07/13 19:16:12;;;;;;;;;;;;;;;23.52;40.04;96065.34;10520332;28;1877;-70
2022/07/13 19:21:13;;;;;;;;;;;;;;;23.51;40.06;96056.63;10509207;28;1804;-69
2022/07/13 19:31:32;;;;;;;;;;;;;;;23.53;40.08;96066.94;10509669;28;1870;-69
2022/07/13 19:36:33;;;;;;;;;;;;;;;23.52;39.98;96074.06;10498228;28;1931;-69
2022/07/13 19:41:34;;;;;;;;;;;;;;;23.52;39.79;96095.25;10506830;28;1874;-69
2022/07/13 19:46:34;;;;;;;;;;;;;;;23.51;39.68;96092.88;10510777;28;1913;-69
2022/07/13 19:51:37;;;;;;;;;;;;;;;23.51;39.72;96098.97;10480255;28;1749;-72
2022/07/13 19:56:40;;;;;;;;;;;;;;;23.51;39.37;96098.97;10508770;28;1822;-71
2022/07/13 20:01:41;;;;;;;;;;;;;;;23.50;39.45;96092.09;10508439;28;1847;-73
2022/07/13 20:06:42;;;;;;;;;;;;;;;23.50;39.20;96086.78;10510301;28;1977;-71
2022/07/13 20:11:42;;;;;;;;;;;;;;;23.48;39.12;96094.22;10513214;28;1828;-71
2022/07/13 20:16:43;;;;;;;;;;;;;;;23.47;39.26;96100.59;10515237;28;1836;-71
2022/07/13 20:21:43;;;;;;;;;;;;;;;23.49;39.32;96106.41;10510886;28;1814;-72
2022/07/13 20:26:44;;;;;;;;;;;;;;;23.49;39.62;96101.13;10509456;28;1973;-71
2022/07/13 20:31:45;;;;;;;;;;;;;;;23.50;39.49;96102.66;10509776;28;1803;-71
2022/07/13 20:36:45;;;;;;;;;;;;;;;23.50;39.67;96102.66;10508305;28;1852;-71
2022/07/13 20:41:46;;;;;;;;;;;;;;;23.52;39.72;96097.88;10488314;28;1851;-71
2022/07/13 20:46:46;;;;;;;;;;;;;;;23.53;40.20;96099.47;10516643;28;1901;-72
2022/07/13 20:51:47;;;;;;;;;;;;;;;23.53;40.22;96096.03;10499071;28;1866;-72
2022/07/13 20:56:47;;;;;;;;;;;;;;;23.55;40.42;96099.97;10516165;28;1796;-72
2022/07/13 21:01:47;;;;;;;;;;;;;;;23.56;40.19;96093.59;10515561;28;1870;-71
2022/07/13 21:06:49;;;;;;;;;;;;;;;23.57;40.65;96092.53;10519349;28;1902;-72
2022/07/13 21:11:49;;;;;;;;;;;;;;;23.58;40.44;96088.00;10512109;28;1847;-73
2022/07/13 21:16:49;;;;;;;;;;;;;;;23.59;40.66;96092.25;10524766;28;1863;-72
2022/07/13 21:21:50;;;;;;;;;;;;;;;23.59;40.66;96089.59;10502983;28;1864;-72
2022/07/13 21:26:50;;;;;;;;;;;;;;;23.60;40.77;96097.25;10502275;28;1902;-72
2022/07/13 21:31:50;;;;;;;;;;;;;;;23.61;41.09;96103.34;10520527;28;1846;-72
2022/07/13 21:36:51;;;;;;;;;;;;;;;23.62;41.07;96105.69;10516482;28;1854;-69
2022/07/13 21:41:51;;;;;;;;;;;;;;;23.63;41.17;96106.50;10537542;28;1831;-72
2022/07/13 21:46:51;;;;;;;;;;;;;;;23.63;41.09;96096.69;10502806;28;2021;-75
2022/07/13 21:51:52;;;;;;;;;;;;;;;23.63;41.07;96091.41;10523725;28;1728;-75
2022/07/13 21:56:53;;;;;;;;;;;;;;;23.63;41.11;96090.59;10517581;28;2334;-75
2022/07/13 22:01:53;;;;;;;;;;;;;;;23.62;41.30;96089.81;10497747;28;2225;-73
2022/07/13 22:07:13;;;;;;;;;;;;;;;23.61;41.46;96096.19;10515871;28;2142;-74
2022/07/13 22:12:32;;;;;;;;;;;;;;;23.65;41.61;96088.47;10512771;28;1842;-74
2022/07/13 22:17:51;;;;;;;;;;;;;;;23.67;41.79;96094.25;10515695;28;1705;-74
2022/07/13 22:23:11;;;;;;;;;;;;;;;23.67;42.12;96081.81;10514873;28;1816;-72
2022/07/13 22:28:30;;;;;;;;;;;;;;;23.67;42.21;96089.75;10518481;28;1968;-75
2022/07/13 22:33:49;;;;;;;;;;;;;;;23.68;42.40;96082.63;10514135;28;1787;-75
2022/07/13 22:39:08;;;;;;;;;;;;;;;23.70;42.31;96083.13;10512240;28;1934;-76
2022/07/13 22:44:28;;;;;;;;;;;;;;;23.71;42.38;96082.03;10512520;28;1910;-75
2022/07/13 22:49:47;;;;;;;;;;;;;;;23.73;42.45;96078.03;10512584;28;2008;-74
2022/07/13 22:55:06;;;;;;;;;;;;;;;23.74;42.51;96076.19;10514432;28;2032;-75
2022/07/13 23:00:25;;;;;;;;;;;;;;;23.73;42.57;96080.69;10497092;28;2012;-75
2022/07/13 23:05:44;;;;;;;;;;;;;;;23.74;42.93;96081.47;10515971;28;1910;-76
2022/07/13 23:11:03;;;;;;;;;;;;;;;23.75;42.56;96088.31;10518773;28;1812;-72
2022/07/13 23:16:22;;;;;;;;;;;;;;;23.75;42.75;96083.03;10517196;28;1980;-76
2022/07/13 23:21:41;;;;;;;;;;;;;;;23.75;42.83;96070.59;10514314;28;1916;-75
2022/07/13 23:27:00;;;;;;;;;;;;;;;23.75;42.79;96067.94;10512703;28;1902;-75
2022/07/13 23:32:04;;;;;;;;;;;;;;;23.77;42.90;96063.16;10514248;28;1804;-74
2022/07/13 23:37:05;;;;;;;;;;;;;;;23.77;42.84;96054.41;10509227;28;2036;-75
2022/07/13 23:42:06;;;;;;;;;;;;;;;23.78;42.79;96056.78;10509377;28;2007;-75
2022/07/13 23:47:07;;;;;;;;;;;;;;;23.78;42.77;96067.34;10496448;28;1910;-76
2022/07/13 23:52:07;;;;;;;;;;;;;;;23.79;42.77;96063.66;10480702;28;1800;-76
2022/07/13 23:57:07;;;;;;;;;;;;;;;23.79;42.98;96068.94;10499821;28;1831;-75
